createdAt,value
2017-09-15T00:02:15.547Z,12.70
2017-09-15T00:05:16.811Z,12.60
2017-09-15T00:08:18.798Z,12.60
2017-09-15T00:11:20.091Z,12.60
2017-09-15T00:14:21.316Z,12.50
2017-09-15T00:17:22.629Z,12.60
2017-09-15T00:20:24.656Z,12.60
2017-09-15T00:23:25.976Z,12.50
2017-09-15T00:26:27.246Z,12.50
2017-09-15T00:29:28.507Z,12.50
2017-09-15T00:32:29.910Z,12.50
2017-09-15T00:35:31.186Z,12.40
2017-09-15T00:38:32.471Z,12.50
2017-09-15T00:41:34.482Z,12.50
2017-09-15T00:44:36.034Z,12.50
2017-09-15T00:47:37.274Z,12.50
2017-09-15T00:50:38.587Z,12.50
2017-09-15T00:53:40.622Z,12.50
2017-09-15T00:56:41.946Z,12.50
2017-09-15T00:59:43.270Z,12.50
2017-09-15T01:02:45.299Z,12.60
2017-09-15T01:05:47.017Z,12.60
2017-09-15T01:08:48.328Z,12.70
2017-09-15T01:11:50.471Z,12.60
2017-09-15T01:14:51.742Z,12.60
2017-09-15T01:17:53.051Z,12.60
2017-09-15T01:20:54.286Z,12.70
2017-09-15T01:23:55.593Z,12.60
2017-09-15T01:26:57.570Z,12.60
2017-09-15T01:29:58.854Z,12.60
2017-09-15T01:33:00.257Z,12.60
2017-09-15T01:36:02.258Z,12.60
2017-09-15T01:39:03.723Z,12.00
2017-09-15T01:42:04.987Z,12.50
2017-09-15T01:45:06.278Z,12.50
2017-09-15T01:48:08.300Z,12.40
2017-09-15T01:51:09.661Z,12.40
2017-09-15T01:54:10.922Z,12.30
2017-09-15T01:57:12.214Z,12.40
2017-09-15T02:00:13.491Z,12.30
2017-09-15T02:03:14.771Z,12.40
2017-09-15T02:06:16.019Z,12.40
2017-09-15T02:09:17.321Z,12.40
2017-09-15T02:12:18.570Z,12.40
2017-09-15T02:15:19.851Z,12.40
2017-09-15T02:18:21.125Z,12.40
2017-09-15T02:21:23.146Z,12.40
2017-09-15T02:24:24.446Z,12.30
2017-09-15T02:27:26.475Z,12.20
2017-09-15T02:30:27.746Z,12.20
2017-09-15T02:33:29.046Z,12.30
2017-09-15T02:36:30.291Z,12.40
2017-09-15T02:39:31.578Z,12.40
2017-09-15T02:42:33.105Z,12.40
2017-09-15T02:45:35.102Z,12.30
2017-09-15T02:48:36.588Z,12.30
2017-09-15T02:51:37.865Z,12.10
2017-09-15T02:54:39.162Z,12.30
2017-09-15T02:57:41.161Z,12.10
2017-09-15T03:00:42.455Z,12.10
2017-09-15T03:03:43.733Z,12.10
2017-09-15T03:06:45.798Z,12.10
2017-09-15T03:09:47.966Z,12.10
2017-09-15T03:12:49.982Z,12.00
2017-09-15T03:15:51.390Z,12.00
2017-09-15T03:18:53.406Z,12.10
2017-09-15T03:21:55.459Z,12.20
2017-09-15T03:24:56.786Z,12.20
2017-09-15T03:27:58.101Z,12.10
2017-09-15T03:30:59.375Z,12.10
2017-09-15T03:34:01.410Z,12.00
2017-09-15T03:37:02.651Z,12.00
2017-09-15T03:40:03.947Z,11.90
2017-09-15T03:43:05.214Z,12.00
2017-09-15T03:46:06.505Z,12.00
2017-09-15T03:49:07.833Z,11.90
2017-09-15T03:52:09.103Z,12.00
2017-09-15T03:55:10.509Z,12.00
2017-09-15T03:58:11.747Z,11.90
2017-09-15T04:01:13.154Z,11.90
2017-09-15T04:04:14.474Z,11.80
2017-09-15T04:07:15.750Z,11.80
2017-09-15T04:10:17.033Z,11.80
2017-09-15T04:13:18.346Z,11.70
2017-09-15T04:16:19.590Z,11.80
2017-09-15T04:19:20.883Z,11.70
2017-09-15T04:22:22.375Z,11.80
2017-09-15T04:25:23.642Z,11.80
2017-09-15T04:28:24.945Z,11.80
2017-09-15T04:31:26.234Z,11.60
2017-09-15T04:34:27.526Z,11.70
2017-09-15T04:37:28.837Z,11.80
2017-09-15T04:40:30.150Z,11.70
2017-09-15T04:43:31.422Z,11.80
2017-09-15T04:46:32.743Z,11.80
2017-09-15T04:49:34.028Z,11.80
2017-09-15T04:52:35.334Z,11.90
2017-09-15T04:55:36.637Z,11.90
2017-09-15T04:58:37.926Z,12.00
2017-09-15T05:01:39.195Z,11.90
2017-09-15T05:04:40.443Z,12.00
2017-09-15T05:07:41.758Z,12.10
2017-09-15T05:10:43.758Z,12.20
2017-09-15T05:13:45.031Z,12.20
2017-09-15T05:16:46.330Z,12.20
2017-09-15T05:19:47.611Z,12.10
2017-09-15T05:22:48.990Z,11.50
2017-09-15T05:25:50.258Z,12.20
2017-09-15T05:28:52.291Z,12.20
2017-09-15T05:31:53.690Z,12.20
2017-09-15T05:34:54.965Z,11.70
2017-09-15T05:37:56.261Z,12.30
2017-09-15T05:40:57.534Z,12.30
2017-09-15T05:43:59.568Z,12.20
2017-09-15T05:47:00.835Z,12.20
2017-09-15T05:50:02.902Z,12.40
2017-09-15T05:53:04.894Z,12.30
2017-09-15T05:56:06.219Z,12.20
2017-09-15T05:59:07.467Z,12.30
2017-09-15T06:02:09.503Z,12.40
2017-09-15T06:05:10.787Z,12.30
2017-09-15T06:08:12.810Z,12.40
2017-09-15T06:11:14.071Z,12.30
2017-09-15T06:14:15.370Z,12.40
2017-09-15T06:17:16.943Z,12.50
2017-09-15T06:20:18.191Z,12.50
2017-09-15T06:23:19.518Z,12.50
2017-09-15T06:26:20.759Z,12.50
2017-09-15T06:29:22.062Z,12.60
2017-09-15T06:32:23.333Z,12.70
2017-09-15T06:35:24.645Z,12.80
2017-09-15T06:38:25.906Z,12.80
2017-09-15T06:41:27.163Z,12.80
2017-09-15T06:44:28.461Z,12.70
2017-09-15T06:47:29.763Z,12.70
2017-09-15T06:50:31.007Z,12.80
2017-09-15T06:53:32.315Z,12.90
2017-09-15T06:56:33.575Z,12.80
2017-09-15T06:59:34.850Z,12.80
2017-09-15T07:02:36.130Z,12.80
2017-09-15T07:05:38.162Z,12.80
2017-09-15T07:08:39.499Z,12.70
2017-09-15T07:11:40.741Z,12.80
2017-09-15T07:14:42.034Z,12.80
2017-09-15T07:17:44.015Z,12.80
2017-09-15T07:20:46.040Z,12.80
2017-09-15T07:23:47.333Z,12.80
2017-09-15T07:26:48.610Z,12.70
2017-09-15T07:29:49.862Z,12.80
2017-09-15T07:32:51.161Z,12.80
2017-09-15T07:36:00.100Z,12.90
2017-09-15T07:39:02.149Z,12.90
2017-09-15T07:42:03.430Z,12.90
2017-09-15T07:45:04.722Z,12.90
2017-09-15T07:48:05.980Z,12.90
2017-09-15T07:51:07.251Z,13.00
2017-09-15T07:54:09.316Z,13.10
2017-09-15T07:57:11.622Z,13.00
2017-09-15T08:00:12.899Z,13.00
2017-09-15T08:03:14.166Z,13.00
2017-09-15T08:06:15.426Z,13.00
2017-09-15T08:09:16.731Z,13.00
2017-09-15T08:12:18.006Z,13.00
2017-09-15T08:15:19.346Z,12.90
2017-09-15T08:18:20.758Z,12.80
2017-09-15T08:21:22.006Z,12.20
2017-09-15T08:24:51.681Z,12.80
2017-09-15T08:27:52.970Z,12.80
2017-09-15T08:30:54.265Z,12.80
2017-09-15T08:33:55.658Z,12.80
2017-09-15T08:36:56.938Z,12.50
2017-09-15T08:39:58.458Z,12.70
2017-09-15T08:43:00.474Z,12.80
2017-09-15T08:46:01.761Z,12.80
2017-09-15T08:49:10.806Z,12.70
2017-09-15T08:52:12.086Z,12.70
2017-09-15T08:55:13.350Z,12.70
2017-09-15T08:58:14.644Z,12.90
2017-09-15T09:01:16.655Z,13.20
2017-09-15T09:04:17.922Z,13.10
2017-09-15T09:07:19.286Z,13.30
2017-09-15T09:10:20.546Z,13.20
2017-09-15T09:13:22.566Z,13.20
2017-09-15T09:16:23.803Z,13.20
2017-09-15T09:19:25.094Z,13.20
2017-09-15T09:22:26.330Z,13.30
2017-09-15T09:25:27.646Z,13.40
2017-09-15T09:28:29.093Z,13.50
2017-09-15T09:31:30.330Z,13.60
2017-09-15T09:34:31.610Z,13.60
2017-09-15T09:37:32.864Z,13.50
2017-09-15T09:40:34.135Z,13.50
2017-09-15T09:43:35.427Z,13.50
2017-09-15T09:46:36.696Z,13.50
2017-09-15T09:49:37.934Z,13.50
2017-09-15T09:52:39.243Z,13.50
2017-09-15T09:55:41.354Z,13.50
2017-09-15T09:58:42.609Z,13.40
2017-09-15T10:01:43.883Z,13.40
2017-09-15T10:04:45.151Z,13.50
2017-09-15T10:07:47.188Z,13.40
2017-09-15T10:10:48.418Z,13.40
2017-09-15T10:13:49.682Z,13.70
2017-09-15T10:16:50.926Z,14.10
2017-09-15T10:19:52.198Z,14.30
2017-09-15T10:22:53.485Z,14.50
2017-09-15T10:25:54.792Z,14.30
2017-09-15T10:28:56.246Z,14.30
2017-09-15T10:31:57.510Z,14.80
2017-09-15T10:34:59.514Z,14.50
2017-09-15T10:38:00.798Z,14.50
2017-09-15T10:41:02.066Z,14.50
2017-09-15T10:44:03.341Z,14.60
2017-09-15T10:47:04.646Z,14.90
2017-09-15T10:50:05.922Z,15.00
2017-09-15T10:53:07.935Z,14.80
2017-09-15T10:56:09.179Z,14.80
2017-09-15T10:59:16.702Z,14.70
2017-09-15T11:02:17.929Z,14.60
2017-09-15T11:05:19.221Z,14.60
2017-09-15T11:08:21.218Z,14.10
2017-09-15T11:11:22.469Z,14.10
2017-09-15T11:14:23.770Z,13.90
2017-09-15T11:17:25.049Z,13.90
2017-09-15T11:20:27.059Z,13.90
2017-09-15T11:23:28.329Z,13.90
2017-09-15T11:26:29.617Z,14.00
2017-09-15T11:29:30.878Z,13.90
2017-09-15T11:32:32.157Z,14.00
2017-09-15T11:35:33.546Z,13.90
2017-09-15T11:38:35.557Z,13.90
2017-09-15T11:41:36.887Z,13.90
2017-09-15T11:44:38.850Z,14.20
2017-09-15T11:47:40.149Z,14.20
2017-09-15T11:50:41.425Z,14.40
2017-09-15T11:53:43.418Z,14.40
2017-09-15T11:56:44.728Z,14.40
2017-09-15T11:59:46.742Z,14.30
2017-09-15T12:02:48.015Z,14.30
2017-09-15T12:05:49.298Z,14.30
2017-09-15T12:08:51.290Z,14.20
2017-09-15T12:11:52.581Z,14.10
2017-09-15T12:14:54.102Z,14.40
2017-09-15T12:17:55.357Z,14.60
2017-09-15T12:20:56.662Z,14.70
2017-09-15T12:23:58.749Z,14.80
2017-09-15T12:27:00.033Z,14.80
2017-09-15T12:30:02.106Z,16.00
2017-09-15T12:33:03.370Z,15.90
2017-09-15T12:36:04.703Z,15.50
2017-09-15T12:39:05.982Z,15.00
2017-09-15T12:42:07.363Z,14.80
2017-09-15T12:45:08.619Z,14.70
2017-09-15T12:48:09.906Z,14.60
2017-09-15T12:51:11.139Z,14.50
2017-09-15T12:54:12.466Z,14.30
2017-09-15T12:57:13.754Z,14.30
2017-09-15T13:00:15.092Z,14.20
2017-09-15T13:03:16.362Z,13.40
2017-09-15T13:06:17.783Z,14.10
2017-09-15T13:09:19.061Z,14.20
2017-09-15T13:12:20.338Z,14.20
2017-09-15T13:15:22.378Z,14.20
2017-09-15T13:18:23.658Z,14.20
2017-09-15T13:21:25.643Z,14.20
2017-09-15T13:24:27.041Z,14.20
2017-09-15T13:27:28.649Z,14.50
2017-09-15T13:30:29.950Z,14.90
2017-09-15T13:33:31.342Z,15.40
2017-09-15T13:36:32.586Z,15.50
2017-09-15T13:39:33.854Z,15.40
2017-09-15T13:42:35.086Z,15.10
2017-09-15T13:45:36.334Z,15.50
2017-09-15T13:48:37.597Z,15.90
2017-09-15T13:51:38.893Z,16.10
2017-09-15T13:54:40.295Z,16.10
2017-09-15T13:57:41.566Z,15.70
2017-09-15T14:00:42.838Z,15.50
2017-09-15T14:03:44.101Z,15.20
2017-09-15T14:06:46.126Z,15.00
2017-09-15T14:09:47.414Z,15.00
2017-09-15T14:12:49.437Z,15.50
2017-09-15T14:15:50.847Z,15.50
2017-09-15T14:18:52.849Z,16.00
2017-09-15T14:21:54.257Z,16.00
2017-09-15T14:24:56.254Z,15.90
2017-09-15T14:27:57.545Z,15.90
2017-09-15T14:30:58.842Z,15.70
2017-09-15T14:34:00.130Z,15.90
2017-09-15T14:37:02.130Z,16.40
2017-09-15T14:40:04.171Z,16.90
2017-09-15T14:43:05.414Z,16.90
2017-09-15T14:46:06.706Z,16.30
2017-09-15T14:49:07.995Z,15.90
2017-09-15T14:52:11.797Z,15.60
2017-09-15T14:55:13.044Z,15.00
2017-09-15T14:58:14.392Z,15.40
2017-09-15T15:01:15.643Z,15.90
2017-09-15T15:04:16.937Z,16.90
2017-09-15T15:07:18.925Z,15.50
2017-09-15T15:10:20.308Z,15.50
2017-09-15T15:13:21.554Z,14.70
2017-09-15T15:16:22.846Z,15.10
2017-09-15T15:19:24.099Z,15.10
2017-09-15T15:22:25.470Z,15.00
2017-09-15T15:25:26.738Z,14.40
2017-09-15T15:28:28.033Z,15.10
2017-09-15T15:31:29.333Z,14.40
2017-09-15T15:34:30.657Z,15.20
2017-09-15T15:37:32.646Z,15.00
2017-09-15T15:40:33.888Z,15.00
2017-09-15T15:43:35.206Z,15.00
2017-09-15T15:46:37.239Z,15.00
2017-09-15T15:49:38.523Z,15.00
2017-09-15T15:52:41.357Z,14.70
2017-09-15T15:55:42.646Z,14.20
2017-09-15T15:58:43.926Z,14.60
2017-09-15T16:01:45.214Z,14.60
2017-09-15T16:04:46.618Z,14.60
2017-09-15T16:07:48.610Z,14.50
2017-09-15T16:10:49.971Z,14.50
2017-09-15T16:13:51.215Z,14.40
2017-09-15T16:16:52.501Z,14.40
2017-09-15T16:19:53.810Z,14.40
2017-09-15T16:22:55.115Z,14.30
2017-09-15T16:25:57.179Z,14.30
2017-09-15T16:28:58.524Z,14.30
2017-09-15T16:31:59.843Z,14.50
2017-09-15T16:35:01.245Z,14.50
2017-09-15T16:38:08.974Z,14.50
2017-09-15T16:41:16.302Z,14.40
2017-09-15T16:44:23.704Z,14.30
2017-09-15T16:47:31.081Z,15.10
2017-09-15T16:50:32.401Z,14.70
2017-09-15T16:53:33.751Z,14.50
2017-09-15T16:56:35.061Z,14.40
2017-09-15T16:59:37.139Z,14.20
2017-09-15T17:02:38.529Z,14.20
2017-09-15T17:05:40.603Z,14.00
2017-09-15T17:08:41.878Z,14.00
2017-09-15T17:11:43.218Z,14.00
2017-09-15T17:14:44.582Z,14.00
2017-09-15T17:17:45.967Z,14.00
2017-09-15T17:20:47.332Z,13.90
2017-09-15T17:23:49.523Z,13.90
2017-09-15T17:26:52.839Z,13.90
2017-09-15T17:29:55.384Z,13.90
2017-09-15T17:32:57.251Z,13.90
2017-09-15T17:35:58.586Z,13.80
2017-09-15T17:38:59.988Z,13.70
2017-09-15T17:42:01.583Z,13.80
2017-09-15T17:45:02.933Z,13.70
2017-09-15T17:48:04.301Z,13.70
2017-09-15T17:51:06.729Z,13.50
2017-09-15T17:54:08.917Z,13.40
2017-09-15T17:57:10.209Z,13.40
2017-09-15T18:00:12.518Z,13.40
2017-09-15T18:03:14.707Z,13.50
2017-09-15T18:06:16.801Z,13.50
2017-09-15T18:09:18.156Z,13.40
2017-09-15T18:12:19.861Z,13.50
2017-09-15T18:15:21.708Z,12.80
2017-09-15T18:18:24.014Z,13.40
2017-09-15T18:21:26.517Z,13.40
2017-09-15T18:24:27.863Z,13.30
2017-09-15T18:27:29.231Z,13.40
2017-09-15T18:30:31.635Z,13.30
2017-09-15T18:33:33.330Z,13.30
2017-09-15T18:36:35.975Z,13.00
2017-09-15T18:39:38.058Z,13.00
2017-09-15T18:42:40.450Z,13.00
2017-09-15T18:45:42.898Z,13.00
2017-09-15T18:48:44.359Z,13.10
2017-09-15T18:51:47.305Z,13.00
2017-09-15T18:54:49.945Z,13.00
2017-09-15T18:57:51.747Z,13.00
2017-09-15T19:00:53.860Z,14.00
2017-09-15T19:03:57.364Z,13.00
2017-09-15T19:06:58.794Z,13.00
2017-09-15T19:10:01.987Z,13.00
2017-09-15T19:13:03.466Z,12.90
2017-09-15T19:16:05.230Z,12.80
2017-09-15T19:22:15.292Z,12.80
2017-09-15T19:25:16.614Z,12.80
2017-09-15T19:28:17.962Z,12.80
2017-09-15T19:34:50.734Z,12.70
2017-09-15T19:37:52.185Z,12.50
2017-09-15T19:40:53.709Z,12.60
2017-09-15T19:43:55.073Z,12.60
2017-09-15T19:46:56.593Z,12.60
2017-09-15T19:49:59.157Z,12.60
2017-09-15T19:53:00.454Z,12.60
2017-09-15T19:56:01.778Z,12.60
2017-09-15T19:59:03.136Z,12.60
2017-09-15T20:02:05.842Z,12.60
2017-09-15T20:05:07.240Z,12.70
2017-09-15T20:08:08.640Z,12.80
2017-09-15T20:11:10.827Z,12.90
2017-09-15T20:14:12.136Z,12.70
2017-09-15T20:17:13.435Z,13.00
2017-09-15T20:20:14.739Z,12.90
2017-09-15T20:23:16.112Z,12.80
2017-09-15T20:26:17.592Z,12.70
2017-09-15T20:29:19.054Z,12.50
2017-09-15T20:32:20.512Z,12.60
2017-09-15T20:35:22.563Z,12.60
2017-09-15T20:38:23.939Z,12.60
2017-09-15T20:41:26.380Z,12.70
2017-09-15T20:44:27.659Z,12.50
2017-09-15T20:47:28.976Z,12.40
2017-09-15T20:50:30.489Z,12.50
2017-09-15T20:53:31.801Z,12.50
2017-09-15T20:56:33.240Z,12.50
2017-09-15T20:59:34.554Z,12.40
2017-09-15T21:02:35.890Z,12.60
2017-09-15T21:05:37.184Z,12.50
2017-09-15T21:08:39.340Z,12.40
2017-09-15T21:11:42.590Z,12.50
2017-09-15T21:14:43.951Z,12.50
2017-09-15T21:17:45.919Z,12.50
2017-09-15T21:20:47.175Z,12.40
2017-09-15T21:23:48.555Z,12.50
2017-09-15T21:26:50.596Z,12.50
2017-09-15T21:29:51.956Z,12.50
2017-09-15T21:32:53.254Z,12.40
2017-09-15T21:35:54.611Z,12.50
2017-09-15T21:38:55.922Z,12.40
2017-09-15T21:41:57.191Z,12.40
2017-09-15T21:44:58.483Z,12.30
2017-09-15T21:47:59.815Z,12.20
2017-09-15T21:51:01.274Z,12.10
2017-09-15T21:54:02.563Z,11.90
2017-09-15T21:57:03.930Z,11.90
2017-09-15T22:00:05.342Z,11.90
2017-09-15T22:03:06.661Z,11.80
2017-09-15T22:06:08.103Z,11.80
2017-09-15T22:09:09.401Z,11.80
2017-09-15T22:12:10.716Z,11.70
2017-09-15T22:15:12.021Z,11.70
2017-09-15T22:18:13.406Z,11.80
2017-09-15T22:21:15.255Z,11.90
2017-09-15T22:24:16.558Z,11.90
2017-09-15T22:27:17.932Z,11.90
2017-09-15T22:30:19.238Z,12.00
2017-09-15T22:33:21.169Z,11.90
2017-09-15T22:36:22.429Z,11.90
2017-09-15T22:39:23.758Z,11.80
2017-09-15T22:42:25.746Z,11.90
2017-09-15T22:45:27.054Z,11.90
2017-09-15T22:48:28.554Z,12.00
2017-09-15T22:51:29.822Z,12.00
2017-09-15T22:54:31.131Z,12.20
2017-09-15T22:57:33.155Z,11.70
2017-09-15T23:00:34.487Z,11.70
2017-09-15T23:03:35.756Z,11.60
2017-09-15T23:06:37.062Z,11.80
2017-09-15T23:09:38.326Z,11.80
2017-09-15T23:12:39.702Z,11.70
2017-09-15T23:15:41.050Z,11.80
2017-09-15T23:18:42.322Z,11.80
2017-09-15T23:21:43.710Z,11.80
2017-09-15T23:24:44.973Z,11.90
2017-09-15T23:27:46.293Z,11.80
2017-09-15T23:30:47.578Z,11.90
2017-09-15T23:33:48.914Z,11.80
2017-09-15T23:36:50.213Z,11.80
2017-09-15T23:39:51.518Z,11.70
2017-09-15T23:42:52.931Z,11.80
2017-09-15T23:45:55.029Z,11.80
2017-09-15T23:48:56.352Z,11.80
2017-09-15T23:51:58.378Z,11.90
2017-09-15T23:54:59.694Z,11.90
2017-09-15T23:58:00.970Z,12.00
